sensor_id;sensor_type;location;lat;lon;timestamp;temperature;humidity
51305;HTU21D;37392;50.964;6.952;2023-04-29T00:01:53;12.53;117.40
51305;HTU21D;37392;50.964;6.952;2023-04-29T00:04:23;12.52;118.35
51305;HTU21D;37392;50.964;6.952;2023-04-29T00:06:51;12.49;117.02
51305;HTU21D;37392;50.964;6.952;2023-04-29T00:09:17;12.46;116.58
51305;HTU21D;37392;50.964;6.952;2023-04-29T00:11:42;12.43;116.50
51305;HTU21D;37392;50.964;6.952;2023-04-29T00:14:08;12.43;116.51
51305;HTU21D;37392;50.964;6.952;2023-04-29T00:16:33;12.41;116.95
51305;HTU21D;37392;50.964;6.952;2023-04-29T00:18:59;12.43;116.59
51305;HTU21D;37392;50.964;6.952;2023-04-29T00:21:27;12.40;115.49
51305;HTU21D;37392;50.964;6.952;2023-04-29T00:23:53;12.41;116.96
51305;HTU21D;37392;50.964;6.952;2023-04-29T00:26:18;12.41;116.53
51305;HTU21D;37392;50.964;6.952;2023-04-29T00:28:43;12.41;114.59
51305;HTU21D;37392;50.964;6.952;2023-04-29T00:31:09;12.38;115.00
51305;HTU21D;37392;50.964;6.952;2023-04-29T00:33:36;12.37;115.54
51305;HTU21D;37392;50.964;6.952;2023-04-29T00:36:01;12.32;115.08
51305;HTU21D;37392;50.964;6.952;2023-04-29T00:38:27;12.33;116.63
51305;HTU21D;37392;50.964;6.952;2023-04-29T00:40:53;12.30;115.59
51305;HTU21D;37392;50.964;6.952;2023-04-29T00:43:19;12.29;116.26
51305;HTU21D;37392;50.964;6.952;2023-04-29T00:45:45;12.23;114.55
51305;HTU21D;37392;50.964;6.952;2023-04-29T00:48:11;12.23;115.31
51305;HTU21D;37392;50.964;6.952;2023-04-29T00:50:39;12.23;115.69
51305;HTU21D;37392;50.964;6.952;2023-04-29T00:53:06;12.19;115.23
51305;HTU21D;37392;50.964;6.952;2023-04-29T00:55:32;12.20;114.97
51305;HTU21D;37392;50.964;6.952;2023-04-29T00:57:58;12.21;115.62
51305;HTU21D;37392;50.964;6.952;2023-04-29T01:00:25;12.16;113.72
51305;HTU21D;37392;50.964;6.952;2023-04-29T01:02:51;12.15;113.78
51305;HTU21D;37392;50.964;6.952;2023-04-29T01:05:18;12.14;113.18
51305;HTU21D;37392;50.964;6.952;2023-04-29T01:13:34;12.06;113.79
51305;HTU21D;37392;50.964;6.952;2023-04-29T01:16:08;12.06;114.61
51305;HTU21D;37392;50.964;6.952;2023-04-29T01:18:36;12.07;114.61
51305;HTU21D;37392;50.964;6.952;2023-04-29T01:21:05;12.05;113.77
51305;HTU21D;37392;50.964;6.952;2023-04-29T01:23:31;12.02;114.71
51305;HTU21D;37392;50.964;6.952;2023-04-29T01:25:56;12.05;113.66
51305;HTU21D;37392;50.964;6.952;2023-04-29T01:31:07;12.03;114.67
51305;HTU21D;37392;50.964;6.952;2023-04-29T01:36:27;11.97;112.78
51305;HTU21D;37392;50.964;6.952;2023-04-29T01:39:15;11.96;113.64
51305;HTU21D;37392;50.964;6.952;2023-04-29T01:41:56;11.91;114.30
51305;HTU21D;37392;50.964;6.952;2023-04-29T01:44:24;11.88;112.98
51305;HTU21D;37392;50.964;6.952;2023-04-29T01:46:52;11.87;113.16
51305;HTU21D;37392;50.964;6.952;2023-04-29T01:49:24;11.84;114.32
51305;HTU21D;37392;50.964;6.952;2023-04-29T01:51:50;11.84;114.67
51305;HTU21D;37392;50.964;6.952;2023-04-29T01:54:16;11.83;113.68
51305;HTU21D;37392;50.964;6.952;2023-04-29T01:56:42;11.77;112.26
51305;HTU21D;37392;50.964;6.952;2023-04-29T01:59:07;11.76;112.71
51305;HTU21D;37392;50.964;6.952;2023-04-29T02:01:33;11.76;112.55
51305;HTU21D;37392;50.964;6.952;2023-04-29T02:03:58;11.77;113.32
51305;HTU21D;37392;50.964;6.952;2023-04-29T02:06:24;11.72;113.32
51305;HTU21D;37392;50.964;6.952;2023-04-29T02:08:50;11.69;113.15
51305;HTU21D;37392;50.964;6.952;2023-04-29T02:11:16;11.69;112.84
51305;HTU21D;37392;50.964;6.952;2023-04-29T02:13:41;11.67;112.53
51305;HTU21D;37392;50.964;6.952;2023-04-29T02:16:11;11.63;112.87
51305;HTU21D;37392;50.964;6.952;2023-04-29T02:18:37;11.63;112.66
51305;HTU21D;37392;50.964;6.952;2023-04-29T02:21:03;11.62;112.74
51305;HTU21D;37392;50.964;6.952;2023-04-29T02:23:28;11.58;112.03
51305;HTU21D;37392;50.964;6.952;2023-04-29T02:25:54;11.58;112.35
51305;HTU21D;37392;50.964;6.952;2023-04-29T02:28:19;11.53;113.47
51305;HTU21D;37392;50.964;6.952;2023-04-29T02:30:45;11.49;113.74
51305;HTU21D;37392;50.964;6.952;2023-04-29T02:33:10;11.45;114.76
51305;HTU21D;37392;50.964;6.952;2023-04-29T02:35:36;11.38;115.69
51305;HTU21D;37392;50.964;6.952;2023-04-29T02:38:01;11.34;116.89
51305;HTU21D;37392;50.964;6.952;2023-04-29T02:40:27;11.26;118.70
51305;HTU21D;37392;50.964;6.952;2023-04-29T02:42:53;11.17;-5.13
51305;HTU21D;37392;50.964;6.952;2023-04-29T02:45:18;11.15;-4.86
51305;HTU21D;37392;50.964;6.952;2023-04-29T02:47:44;11.04;-3.68
51305;HTU21D;37392;50.964;6.952;2023-04-29T02:50:09;11.02;-2.42
51305;HTU21D;37392;50.964;6.952;2023-04-29T02:52:35;11.01;-2.91
51305;HTU21D;37392;50.964;6.952;2023-04-29T02:55:00;10.96;-2.54
51305;HTU21D;37392;50.964;6.952;2023-04-29T02:57:26;10.95;-1.84
51305;HTU21D;37392;50.964;6.952;2023-04-29T02:59:53;10.95;-1.42
51305;HTU21D;37392;50.964;6.952;2023-04-29T03:02:19;10.93;-0.80
51305;HTU21D;37392;50.964;6.952;2023-04-29T03:04:44;10.95;-0.50
51305;HTU21D;37392;50.964;6.952;2023-04-29T03:07:10;10.94;-0.16
51305;HTU21D;37392;50.964;6.952;2023-04-29T03:09:38;10.92;-0.09
51305;HTU21D;37392;50.964;6.952;2023-04-29T03:12:03;10.89;-0.67
51305;HTU21D;37392;50.964;6.952;2023-04-29T03:14:29;10.84;0.21
51305;HTU21D;37392;50.964;6.952;2023-04-29T03:16:54;10.86;0.45
51305;HTU21D;37392;50.964;6.952;2023-04-29T03:19:20;10.83;0.43
51305;HTU21D;37392;50.964;6.952;2023-04-29T03:21:46;10.83;1.10
51305;HTU21D;37392;50.964;6.952;2023-04-29T03:24:12;10.82;1.55
51305;HTU21D;37392;50.964;6.952;2023-04-29T03:26:37;10.82;1.22
51305;HTU21D;37392;50.964;6.952;2023-04-29T03:29:03;10.78;1.01
51305;HTU21D;37392;50.964;6.952;2023-04-29T03:31:28;10.75;1.24
51305;HTU21D;37392;50.964;6.952;2023-04-29T03:33:54;10.79;1.10
51305;HTU21D;37392;50.964;6.952;2023-04-29T03:36:19;10.75;0.83
51305;HTU21D;37392;50.964;6.952;2023-04-29T03:38:45;10.77;1.31
51305;HTU21D;37392;50.964;6.952;2023-04-29T03:41:10;10.73;1.37
51305;HTU21D;37392;50.964;6.952;2023-04-29T03:43:36;10.69;1.55
51305;HTU21D;37392;50.964;6.952;2023-04-29T03:46:01;10.63;1.69
51305;HTU21D;37392;50.964;6.952;2023-04-29T03:48:27;10.66;2.38
51305;HTU21D;37392;50.964;6.952;2023-04-29T03:50:52;10.62;2.79
51305;HTU21D;37392;50.964;6.952;2023-04-29T03:53:18;10.60;2.41
51305;HTU21D;37392;50.964;6.952;2023-04-29T03:55:43;10.53;2.03
51305;HTU21D;37392;50.964;6.952;2023-04-29T03:58:09;10.50;3.03
51305;HTU21D;37392;50.964;6.952;2023-04-29T04:00:34;10.50;3.12
51305;HTU21D;37392;50.964;6.952;2023-04-29T04:03:00;10.46;3.74
51305;HTU21D;37392;50.964;6.952;2023-04-29T04:05:25;10.46;3.34
51305;HTU21D;37392;50.964;6.952;2023-04-29T04:07:51;10.41;3.41
51305;HTU21D;37392;50.964;6.952;2023-04-29T04:10:17;10.37;2.91
51305;HTU21D;37392;50.964;6.952;2023-04-29T04:12:43;10.31;3.13
51305;HTU21D;37392;50.964;6.952;2023-04-29T04:15:08;10.27;3.02
51305;HTU21D;37392;50.964;6.952;2023-04-29T04:17:34;10.21;3.22
51305;HTU21D;37392;50.964;6.952;2023-04-29T04:20:00;10.23;4.01
51305;HTU21D;37392;50.964;6.952;2023-04-29T04:22:25;10.23;3.35
51305;HTU21D;37392;50.964;6.952;2023-04-29T04:24:53;10.19;3.20
51305;HTU21D;37392;50.964;6.952;2023-04-29T04:27:19;10.23;3.86
51305;HTU21D;37392;50.964;6.952;2023-04-29T04:29:44;10.19;3.58
51305;HTU21D;37392;50.964;6.952;2023-04-29T04:32:09;10.16;3.21
51305;HTU21D;37392;50.964;6.952;2023-04-29T04:34:35;10.12;3.71
51305;HTU21D;37392;50.964;6.952;2023-04-29T04:37:01;10.13;3.67
51305;HTU21D;37392;50.964;6.952;2023-04-29T04:39:26;10.12;3.51
51305;HTU21D;37392;50.964;6.952;2023-04-29T04:41:52;10.12;3.09
51305;HTU21D;37392;50.964;6.952;2023-04-29T04:44:17;10.08;3.00
51305;HTU21D;37392;50.964;6.952;2023-04-29T04:46:42;10.05;3.64
51305;HTU21D;37392;50.964;6.952;2023-04-29T04:49:08;10.10;3.71
51305;HTU21D;37392;50.964;6.952;2023-04-29T04:51:33;10.10;4.06
51305;HTU21D;37392;50.964;6.952;2023-04-29T04:53:59;10.13;4.31
51305;HTU21D;37392;50.964;6.952;2023-04-29T04:56:24;10.15;3.90
51305;HTU21D;37392;50.964;6.952;2023-04-29T04:58:50;10.10;3.35
51305;HTU21D;37392;50.964;6.952;2023-04-29T05:01:15;10.14;4.12
51305;HTU21D;37392;50.964;6.952;2023-04-29T05:03:41;10.14;3.54
51305;HTU21D;37392;50.964;6.952;2023-04-29T05:06:06;10.14;4.09
51305;HTU21D;37392;50.964;6.952;2023-04-29T05:08:31;10.15;4.02
51305;HTU21D;37392;50.964;6.952;2023-04-29T05:10:57;10.19;4.08
51305;HTU21D;37392;50.964;6.952;2023-04-29T05:13:22;10.19;3.70
51305;HTU21D;37392;50.964;6.952;2023-04-29T05:15:49;10.20;3.90
51305;HTU21D;37392;50.964;6.952;2023-04-29T05:18:15;10.21;3.50
51305;HTU21D;37392;50.964;6.952;2023-04-29T05:20:41;10.24;3.80
51305;HTU21D;37392;50.964;6.952;2023-04-29T05:23:06;10.26;3.25
51305;HTU21D;37392;50.964;6.952;2023-04-29T05:25:33;10.28;3.35
51305;HTU21D;37392;50.964;6.952;2023-04-29T05:27:58;10.25;2.71
51305;HTU21D;37392;50.964;6.952;2023-04-29T05:30:24;10.23;2.44
51305;HTU21D;37392;50.964;6.952;2023-04-29T05:32:49;10.30;3.11
51305;HTU21D;37392;50.964;6.952;2023-04-29T05:35:15;10.35;2.77
51305;HTU21D;37392;50.964;6.952;2023-04-29T05:37:40;10.38;3.16
51305;HTU21D;37392;50.964;6.952;2023-04-29T05:40:06;10.42;3.11
51305;HTU21D;37392;50.964;6.952;2023-04-29T05:42:32;10.49;3.04
51305;HTU21D;37392;50.964;6.952;2023-04-29T05:44:58;10.50;2.64
51305;HTU21D;37392;50.964;6.952;2023-04-29T05:47:23;10.48;1.97
51305;HTU21D;37392;50.964;6.952;2023-04-29T05:49:48;10.53;2.54
51305;HTU21D;37392;50.964;6.952;2023-04-29T05:52:14;10.53;2.07
51305;HTU21D;37392;50.964;6.952;2023-04-29T05:54:39;10.57;2.05
51305;HTU21D;37392;50.964;6.952;2023-04-29T05:57:05;10.60;2.13
51305;HTU21D;37392;50.964;6.952;2023-04-29T05:59:31;10.64;1.73
51305;HTU21D;37392;50.964;6.952;2023-04-29T06:01:57;10.67;1.08
51305;HTU21D;37392;50.964;6.952;2023-04-29T06:04:23;10.65;0.29
51305;HTU21D;37392;50.964;6.952;2023-04-29T06:06:50;10.70;0.47
51305;HTU21D;37392;50.964;6.952;2023-04-29T06:09:20;10.71;0.23
51305;HTU21D;37392;50.964;6.952;2023-04-29T06:11:49;10.72;0.29
51305;HTU21D;37392;50.964;6.952;2023-04-29T06:14:15;10.74;-0.57
51305;HTU21D;37392;50.964;6.952;2023-04-29T06:16:41;10.77;-0.32
51305;HTU21D;37392;50.964;6.952;2023-04-29T06:19:06;10.82;-0.22
51305;HTU21D;37392;50.964;6.952;2023-04-29T06:21:32;10.86;-0.49
51305;HTU21D;37392;50.964;6.952;2023-04-29T06:23:57;10.93;-0.27
51305;HTU21D;37392;50.964;6.952;2023-04-29T06:26:23;10.84;-2.71
51305;HTU21D;37392;50.964;6.952;2023-04-29T06:28:49;10.90;-2.48
51305;HTU21D;37392;50.964;6.952;2023-04-29T06:31:14;10.99;-2.32
51305;HTU21D;37392;50.964;6.952;2023-04-29T06:33:40;11.01;-2.87
51305;HTU21D;37392;50.964;6.952;2023-04-29T06:36:06;11.02;-3.12
51305;HTU21D;37392;50.964;6.952;2023-04-29T06:38:32;11.04;-3.47
51305;HTU21D;37392;50.964;6.952;2023-04-29T06:40:57;11.02;-2.92
51305;HTU21D;37392;50.964;6.952;2023-04-29T06:43:25;11.00;-3.60
51305;HTU21D;37392;50.964;6.952;2023-04-29T06:45:51;10.94;-3.09
51305;HTU21D;37392;50.964;6.952;2023-04-29T06:48:16;10.90;-2.97
51305;HTU21D;37392;50.964;6.952;2023-04-29T06:50:48;10.86;-2.72
51305;HTU21D;37392;50.964;6.952;2023-04-29T06:53:14;10.90;-3.06
51305;HTU21D;37392;50.964;6.952;2023-04-29T06:55:39;10.96;-1.83
51305;HTU21D;37392;50.964;6.952;2023-04-29T06:58:05;11.09;-1.92
51305;HTU21D;37392;50.964;6.952;2023-04-29T07:00:31;11.18;-2.09
51305;HTU21D;37392;50.964;6.952;2023-04-29T07:02:56;11.30;-3.09
51305;HTU21D;37392;50.964;6.952;2023-04-29T07:05:21;11.48;-4.68
51305;HTU21D;37392;50.964;6.952;2023-04-29T07:07:47;11.57;-5.81
51305;HTU21D;37392;50.964;6.952;2023-04-29T07:10:12;11.70;117.18
51305;HTU21D;37392;50.964;6.952;2023-04-29T07:12:38;11.75;116.41
51305;HTU21D;37392;50.964;6.952;2023-04-29T07:15:03;11.89;116.81
51305;HTU21D;37392;50.964;6.952;2023-04-29T07:17:29;12.00;116.15
51305;HTU21D;37392;50.964;6.952;2023-04-29T07:19:55;12.06;116.15
51305;HTU21D;37392;50.964;6.952;2023-04-29T07:22:21;12.01;114.16
51305;HTU21D;37392;50.964;6.952;2023-04-29T07:24:46;12.06;114.49
51305;HTU21D;37392;50.964;6.952;2023-04-29T07:27:12;12.15;112.95
51305;HTU21D;37392;50.964;6.952;2023-04-29T07:29:37;12.22;114.35
51305;HTU21D;37392;50.964;6.952;2023-04-29T07:32:04;12.29;113.42
51305;HTU21D;37392;50.964;6.952;2023-04-29T07:34:29;12.41;112.84
51305;HTU21D;37392;50.964;6.952;2023-04-29T07:36:55;12.38;111.78
51305;HTU21D;37392;50.964;6.952;2023-04-29T07:39:21;12.47;112.52
51305;HTU21D;37392;50.964;6.952;2023-04-29T07:41:47;12.37;111.54
51305;HTU21D;37392;50.964;6.952;2023-04-29T07:44:12;12.27;109.87
51305;HTU21D;37392;50.964;6.952;2023-04-29T07:46:37;12.20;112.13
51305;HTU21D;37392;50.964;6.952;2023-04-29T07:49:03;12.19;112.60
51305;HTU21D;37392;50.964;6.952;2023-04-29T07:51:31;12.05;111.42
51305;HTU21D;37392;50.964;6.952;2023-04-29T07:53:56;12.02;112.55
51305;HTU21D;37392;50.964;6.952;2023-04-29T07:56:22;12.12;113.15
51305;HTU21D;37392;50.964;6.952;2023-04-29T07:58:47;12.14;111.12
51305;HTU21D;37392;50.964;6.952;2023-04-29T08:01:13;12.42;109.95
51305;HTU21D;37392;50.964;6.952;2023-04-29T08:03:39;12.53;109.05
51305;HTU21D;37392;50.964;6.952;2023-04-29T08:06:05;12.63;108.31
51305;HTU21D;37392;50.964;6.952;2023-04-29T08:08:31;12.69;106.21
51305;HTU21D;37392;50.964;6.952;2023-04-29T08:10:57;12.66;107.69
51305;HTU21D;37392;50.964;6.952;2023-04-29T08:13:22;12.65;107.90
51305;HTU21D;37392;50.964;6.952;2023-04-29T08:15:48;12.70;107.73
51305;HTU21D;37392;50.964;6.952;2023-04-29T08:18:14;12.67;108.19
51305;HTU21D;37392;50.964;6.952;2023-04-29T08:20:39;12.69;104.30
51305;HTU21D;37392;50.964;6.952;2023-04-29T08:23:05;12.67;106.05
51305;HTU21D;37392;50.964;6.952;2023-04-29T08:25:31;12.87;108.24
51305;HTU21D;37392;50.964;6.952;2023-04-29T08:27:57;13.01;106.51
51305;HTU21D;37392;50.964;6.952;2023-04-29T08:30:23;13.08;103.99
51305;HTU21D;37392;50.964;6.952;2023-04-29T08:32:48;12.95;103.18
51305;HTU21D;37392;50.964;6.952;2023-04-29T08:35:15;12.87;101.83
51305;HTU21D;37392;50.964;6.952;2023-04-29T08:37:40;12.90;103.15
51305;HTU21D;37392;50.964;6.952;2023-04-29T08:40:07;13.11;103.16
51305;HTU21D;37392;50.964;6.952;2023-04-29T08:42:33;13.40;102.36
51305;HTU21D;37392;50.964;6.952;2023-04-29T08:45:00;13.85;100.31
51305;HTU21D;37392;50.964;6.952;2023-04-29T08:47:28;14.08;99.64
51305;HTU21D;37392;50.964;6.952;2023-04-29T08:50:01;14.17;95.61
51305;HTU21D;37392;50.964;6.952;2023-04-29T08:52:29;14.30;94.91
51305;HTU21D;37392;50.964;6.952;2023-04-29T08:54:58;14.44;96.10
51305;HTU21D;37392;50.964;6.952;2023-04-29T08:57:27;14.47;93.54
51305;HTU21D;37392;50.964;6.952;2023-04-29T08:59:54;14.39;93.46
51305;HTU21D;37392;50.964;6.952;2023-04-29T09:02:19;14.63;94.83
51305;HTU21D;37392;50.964;6.952;2023-04-29T09:04:52;14.59;93.98
51305;HTU21D;37392;50.964;6.952;2023-04-29T09:07:23;14.91;93.78
51305;HTU21D;37392;50.964;6.952;2023-04-29T09:09:49;14.98;93.24
51305;HTU21D;37392;50.964;6.952;2023-04-29T09:12:16;14.74;92.12
51305;HTU21D;37392;50.964;6.952;2023-04-29T09:14:42;14.70;93.13
51305;HTU21D;37392;50.964;6.952;2023-04-29T09:17:08;14.71;92.43
51305;HTU21D;37392;50.964;6.952;2023-04-29T09:19:35;14.64;90.80
51305;HTU21D;37392;50.964;6.952;2023-04-29T09:22:01;14.54;91.18
51305;HTU21D;37392;50.964;6.952;2023-04-29T09:24:30;14.36;91.40
51305;HTU21D;37392;50.964;6.952;2023-04-29T09:26:58;14.51;91.18
51305;HTU21D;37392;50.964;6.952;2023-04-29T09:29:24;14.57;90.99
51305;HTU21D;37392;50.964;6.952;2023-04-29T09:31:50;14.59;90.66
51305;HTU21D;37392;50.964;6.952;2023-04-29T09:34:17;14.57;90.05
51305;HTU21D;37392;50.964;6.952;2023-04-29T09:36:57;14.48;88.52
51305;HTU21D;37392;50.964;6.952;2023-04-29T09:39:23;14.35;88.98
51305;HTU21D;37392;50.964;6.952;2023-04-29T09:44:21;14.07;89.34
51305;HTU21D;37392;50.964;6.952;2023-04-29T09:47:02;14.09;89.97
51305;HTU21D;37392;50.964;6.952;2023-04-29T09:49:29;14.22;89.91
51305;HTU21D;37392;50.964;6.952;2023-04-29T09:52:10;14.23;88.67
51305;HTU21D;37392;50.964;6.952;2023-04-29T09:54:41;14.27;89.18
51305;HTU21D;37392;50.964;6.952;2023-04-29T09:57:08;14.38;88.10
51305;HTU21D;37392;50.964;6.952;2023-04-29T09:59:36;14.25;87.96
51305;HTU21D;37392;50.964;6.952;2023-04-29T10:02:06;14.13;89.05
51305;HTU21D;37392;50.964;6.952;2023-04-29T10:04:43;14.05;88.44
51305;HTU21D;37392;50.964;6.952;2023-04-29T10:07:13;13.93;88.68
51305;HTU21D;37392;50.964;6.952;2023-04-29T10:09:40;13.93;89.01
51305;HTU21D;37392;50.964;6.952;2023-04-29T10:12:06;14.01;89.31
51305;HTU21D;37392;50.964;6.952;2023-04-29T10:14:32;14.11;88.95
51305;HTU21D;37392;50.964;6.952;2023-04-29T10:20:22;14.12;88.94
51305;HTU21D;37392;50.964;6.952;2023-04-29T10:22:49;14.06;88.43
51305;HTU21D;37392;50.964;6.952;2023-04-29T10:25:24;13.73;89.01
51305;HTU21D;37392;50.964;6.952;2023-04-29T10:27:52;13.54;90.48
51305;HTU21D;37392;50.964;6.952;2023-04-29T10:30:19;13.47;90.95
51305;HTU21D;37392;50.964;6.952;2023-04-29T10:32:48;13.34;92.24
51305;HTU21D;37392;50.964;6.952;2023-04-29T10:35:15;13.37;92.56
51305;HTU21D;37392;50.964;6.952;2023-04-29T10:37:43;13.47;93.19
51305;HTU21D;37392;50.964;6.952;2023-04-29T10:43:08;13.63;93.04
51305;HTU21D;37392;50.964;6.952;2023-04-29T10:45:33;13.60;92.25
51305;HTU21D;37392;50.964;6.952;2023-04-29T10:53:03;13.38;92.89
51305;HTU21D;37392;50.964;6.952;2023-04-29T10:55:29;13.27;92.96
51305;HTU21D;37392;50.964;6.952;2023-04-29T10:57:55;13.25;93.40
51305;HTU21D;37392;50.964;6.952;2023-04-29T11:00:23;13.21;93.33
51305;HTU21D;37392;50.964;6.952;2023-04-29T11:02:58;13.17;93.58
51305;HTU21D;37392;50.964;6.952;2023-04-29T11:05:34;13.19;93.02
51305;HTU21D;37392;50.964;6.952;2023-04-29T11:08:13;13.08;92.90
51305;HTU21D;37392;50.964;6.952;2023-04-29T11:10:47;12.87;93.59
51305;HTU21D;37392;50.964;6.952;2023-04-29T11:16:04;12.86;94.36
51305;HTU21D;37392;50.964;6.952;2023-04-29T11:21:33;12.89;94.94
51305;HTU21D;37392;50.964;6.952;2023-04-29T11:23:59;12.94;94.61
51305;HTU21D;37392;50.964;6.952;2023-04-29T11:26:29;12.91;94.34
51305;HTU21D;37392;50.964;6.952;2023-04-29T11:29:00;12.86;94.40
51305;HTU21D;37392;50.964;6.952;2023-04-29T11:31:30;12.81;94.45
51305;HTU21D;37392;50.964;6.952;2023-04-29T11:33:56;12.84;94.62
51305;HTU21D;37392;50.964;6.952;2023-04-29T11:36:22;12.84;95.05
51305;HTU21D;37392;50.964;6.952;2023-04-29T11:38:48;12.90;94.45
51305;HTU21D;37392;50.964;6.952;2023-04-29T11:41:13;12.89;94.23
51305;HTU21D;37392;50.964;6.952;2023-04-29T11:43:40;12.84;94.23
51305;HTU21D;37392;50.964;6.952;2023-04-29T11:46:15;12.90;94.48
51305;HTU21D;37392;50.964;6.952;2023-04-29T11:48:47;13.02;94.46
51305;HTU21D;37392;50.964;6.952;2023-04-29T11:51:13;13.21;93.50
51305;HTU21D;37392;50.964;6.952;2023-04-29T11:53:39;13.33;92.91
51305;HTU21D;37392;50.964;6.952;2023-04-29T11:56:05;13.34;92.21
51305;HTU21D;37392;50.964;6.952;2023-04-29T11:58:32;13.47;92.59
51305;HTU21D;37392;50.964;6.952;2023-04-29T12:00:58;13.59;91.87
51305;HTU21D;37392;50.964;6.952;2023-04-29T12:03:24;13.65;91.08
51305;HTU21D;37392;50.964;6.952;2023-04-29T12:05:50;13.81;91.19
51305;HTU21D;37392;50.964;6.952;2023-04-29T12:08:19;13.99;90.24
51305;HTU21D;37392;50.964;6.952;2023-04-29T12:10:49;14.09;89.23
51305;HTU21D;37392;50.964;6.952;2023-04-29T12:13:15;14.19;89.42
51305;HTU21D;37392;50.964;6.952;2023-04-29T12:15:41;14.21;89.24
51305;HTU21D;37392;50.964;6.952;2023-04-29T12:18:07;14.11;89.22
51305;HTU21D;37392;50.964;6.952;2023-04-29T12:20:33;14.10;89.37
51305;HTU21D;37392;50.964;6.952;2023-04-29T12:23:14;14.08;89.33
51305;HTU21D;37392;50.964;6.952;2023-04-29T12:25:47;14.26;89.15
51305;HTU21D;37392;50.964;6.952;2023-04-29T12:28:17;14.48;88.70
51305;HTU21D;37392;50.964;6.952;2023-04-29T12:30:43;14.68;87.43
51305;HTU21D;37392;50.964;6.952;2023-04-29T12:33:14;14.66;86.03
51305;HTU21D;37392;50.964;6.952;2023-04-29T12:35:56;14.77;85.86
51305;HTU21D;37392;50.964;6.952;2023-04-29T12:38:23;14.91;85.00
51305;HTU21D;37392;50.964;6.952;2023-04-29T12:40:57;14.54;85.81
51305;HTU21D;37392;50.964;6.952;2023-04-29T12:43:30;14.73;85.06
51305;HTU21D;37392;50.964;6.952;2023-04-29T12:46:02;15.07;84.75
51305;HTU21D;37392;50.964;6.952;2023-04-29T12:48:29;15.32;83.55
51305;HTU21D;37392;50.964;6.952;2023-04-29T12:50:56;15.88;82.07
51305;HTU21D;37392;50.964;6.952;2023-04-29T12:53:23;16.16;79.97
51305;HTU21D;37392;50.964;6.952;2023-04-29T12:55:49;16.35;79.30
51305;HTU21D;37392;50.964;6.952;2023-04-29T12:58:16;16.40;78.82
51305;HTU21D;37392;50.964;6.952;2023-04-29T13:00:42;17.01;77.93
51305;HTU21D;37392;50.964;6.952;2023-04-29T13:03:07;17.01;76.44
51305;HTU21D;37392;50.964;6.952;2023-04-29T13:05:33;17.38;75.57
51305;HTU21D;37392;50.964;6.952;2023-04-29T13:07:58;17.89;74.12
51305;HTU21D;37392;50.964;6.952;2023-04-29T13:10:24;17.89;73.54
51305;HTU21D;37392;50.964;6.952;2023-04-29T13:12:50;18.52;73.19
51305;HTU21D;37392;50.964;6.952;2023-04-29T13:15:16;19.01;70.91
51305;HTU21D;37392;50.964;6.952;2023-04-29T13:17:41;18.51;70.90
51305;HTU21D;37392;50.964;6.952;2023-04-29T13:20:07;18.69;71.25
51305;HTU21D;37392;50.964;6.952;2023-04-29T13:22:33;18.97;70.00
51305;HTU21D;37392;50.964;6.952;2023-04-29T13:24:59;18.68;69.66
51305;HTU21D;37392;50.964;6.952;2023-04-29T13:27:24;18.86;70.34
51305;HTU21D;37392;50.964;6.952;2023-04-29T13:29:50;19.23;69.45
51305;HTU21D;37392;50.964;6.952;2023-04-29T13:32:15;19.21;67.78
51305;HTU21D;37392;50.964;6.952;2023-04-29T13:34:41;19.07;68.05
51305;HTU21D;37392;50.964;6.952;2023-04-29T13:37:09;19.17;67.33
51305;HTU21D;37392;50.964;6.952;2023-04-29T13:39:35;19.46;67.84
51305;HTU21D;37392;50.964;6.952;2023-04-29T13:42:01;19.38;67.20
51305;HTU21D;37392;50.964;6.952;2023-04-29T13:44:28;19.36;67.13
51305;HTU21D;37392;50.964;6.952;2023-04-29T13:46:53;19.41;67.13
51305;HTU21D;37392;50.964;6.952;2023-04-29T13:49:19;19.16;67.09
51305;HTU21D;37392;50.964;6.952;2023-04-29T13:51:45;19.03;67.75
51305;HTU21D;37392;50.964;6.952;2023-04-29T13:54:10;19.33;67.91
51305;HTU21D;37392;50.964;6.952;2023-04-29T13:56:36;19.55;66.77
51305;HTU21D;37392;50.964;6.952;2023-04-29T13:59:01;19.41;66.46
51305;HTU21D;37392;50.964;6.952;2023-04-29T14:01:26;19.18;66.17
51305;HTU21D;37392;50.964;6.952;2023-04-29T14:03:52;18.98;67.33
51305;HTU21D;37392;50.964;6.952;2023-04-29T14:06:17;18.94;67.34
51305;HTU21D;37392;50.964;6.952;2023-04-29T14:08:43;18.61;67.71
51305;HTU21D;37392;50.964;6.952;2023-04-29T14:11:08;18.57;68.42
51305;HTU21D;37392;50.964;6.952;2023-04-29T14:13:34;18.54;68.23
51305;HTU21D;37392;50.964;6.952;2023-04-29T14:15:59;18.20;68.76
51305;HTU21D;37392;50.964;6.952;2023-04-29T14:18:27;17.93;69.68
51305;HTU21D;37392;50.964;6.952;2023-04-29T14:20:54;17.72;70.30
51305;HTU21D;37392;50.964;6.952;2023-04-29T14:23:19;17.60;70.71
51305;HTU21D;37392;50.964;6.952;2023-04-29T14:25:45;17.34;71.37
51305;HTU21D;37392;50.964;6.952;2023-04-29T14:28:11;17.24;72.41
51305;HTU21D;37392;50.964;6.952;2023-04-29T14:30:37;17.16;72.37
51305;HTU21D;37392;50.964;6.952;2023-04-29T14:33:02;17.19;72.78
51305;HTU21D;37392;50.964;6.952;2023-04-29T14:35:28;17.20;72.42
51305;HTU21D;37392;50.964;6.952;2023-04-29T14:37:55;17.11;72.70
51305;HTU21D;37392;50.964;6.952;2023-04-29T14:40:21;16.95;73.11
51305;HTU21D;37392;50.964;6.952;2023-04-29T14:42:46;17.02;73.48
51305;HTU21D;37392;50.964;6.952;2023-04-29T14:45:11;16.93;73.57
51305;HTU21D;37392;50.964;6.952;2023-04-29T14:47:37;17.07;73.95
51305;HTU21D;37392;50.964;6.952;2023-04-29T14:50:02;17.21;73.62
51305;HTU21D;37392;50.964;6.952;2023-04-29T14:52:28;17.37;73.02
51305;HTU21D;37392;50.964;6.952;2023-04-29T14:54:54;17.24;72.29
51305;HTU21D;37392;50.964;6.952;2023-04-29T14:57:20;17.22;72.16
51305;HTU21D;37392;50.964;6.952;2023-04-29T14:59:46;17.05;72.61
51305;HTU21D;37392;50.964;6.952;2023-04-29T15:02:11;17.09;73.24
51305;HTU21D;37392;50.964;6.952;2023-04-29T15:04:36;17.14;72.80
51305;HTU21D;37392;50.964;6.952;2023-04-29T15:07:04;17.23;72.60
51305;HTU21D;37392;50.964;6.952;2023-04-29T15:09:30;17.19;72.24
51305;HTU21D;37392;50.964;6.952;2023-04-29T15:11:59;17.19;71.54
51305;HTU21D;37392;50.964;6.952;2023-04-29T15:14:28;17.21;71.76
51305;HTU21D;37392;50.964;6.952;2023-04-29T15:16:54;17.19;71.32
51305;HTU21D;37392;50.964;6.952;2023-04-29T15:19:19;17.26;71.45
51305;HTU21D;37392;50.964;6.952;2023-04-29T15:21:45;17.21;71.08
51305;HTU21D;37392;50.964;6.952;2023-04-29T15:24:10;17.05;71.68
51305;HTU21D;37392;50.964;6.952;2023-04-29T15:26:36;16.88;71.82
51305;HTU21D;37392;50.964;6.952;2023-04-29T15:29:02;16.87;72.16
51305;HTU21D;37392;50.964;6.952;2023-04-29T15:31:28;16.95;72.01
51305;HTU21D;37392;50.964;6.952;2023-04-29T15:33:53;17.07;71.71
51305;HTU21D;37392;50.964;6.952;2023-04-29T15:36:22;17.04;70.87
51305;HTU21D;37392;50.964;6.952;2023-04-29T15:38:52;17.01;70.61
51305;HTU21D;37392;50.964;6.952;2023-04-29T15:41:18;16.96;71.06
51305;HTU21D;37392;50.964;6.952;2023-04-29T15:43:43;16.95;71.45